sensor_id;sensor_type;location;lat;lon;timestamp;temperature;humidity
44223;DHT22;29895;48.804;9.386;2023-02-28T00:00:24;-1.30;99.90
44223;DHT22;29895;48.804;9.386;2023-02-28T00:02:50;-1.20;99.90
44223;DHT22;29895;48.804;9.386;2023-02-28T00:05:18;-1.20;99.90
44223;DHT22;29895;48.804;9.386;2023-02-28T00:07:44;-1.20;99.90
44223;DHT22;29895;48.804;9.386;2023-02-28T00:10:13;-1.30;99.90
44223;DHT22;29895;48.804;9.386;2023-02-28T00:12:39;-1.40;99.90
44223;DHT22;29895;48.804;9.386;2023-02-28T00:15:09;-1.30;99.90
44223;DHT22;29895;48.804;9.386;2023-02-28T00:17:36;-1.30;99.90
44223;DHT22;29895;48.804;9.386;2023-02-28T00:20:03;-1.20;99.90
44223;DHT22;29895;48.804;9.386;2023-02-28T00:22:30;-1.10;99.90
44223;DHT22;29895;48.804;9.386;2023-02-28T00:24:56;-1.10;99.90
44223;DHT22;29895;48.804;9.386;2023-02-28T00:27:21;-1.10;99.90
44223;DHT22;29895;48.804;9.386;2023-02-28T00:29:47;-1.10;99.90
44223;DHT22;29895;48.804;9.386;2023-02-28T00:32:13;-1.10;99.90
44223;DHT22;29895;48.804;9.386;2023-02-28T00:34:38;-1.10;99.90
44223;DHT22;29895;48.804;9.386;2023-02-28T00:37:09;-1.10;99.90
44223;DHT22;29895;48.804;9.386;2023-02-28T00:39:38;-1.30;99.90
44223;DHT22;29895;48.804;9.386;2023-02-28T00:42:04;-1.40;99.90
44223;DHT22;29895;48.804;9.386;2023-02-28T00:44:31;-1.40;99.90
44223;DHT22;29895;48.804;9.386;2023-02-28T00:46:57;-1.40;99.90
44223;DHT22;29895;48.804;9.386;2023-02-28T00:49:23;-1.40;99.90
44223;DHT22;29895;48.804;9.386;2023-02-28T00:51:49;-1.40;99.90
44223;DHT22;29895;48.804;9.386;2023-02-28T00:54:16;-1.30;99.90
44223;DHT22;29895;48.804;9.386;2023-02-28T00:56:42;-1.30;99.90
44223;DHT22;29895;48.804;9.386;2023-02-28T00:59:07;-1.30;99.90
44223;DHT22;29895;48.804;9.386;2023-02-28T01:01:34;-1.30;99.90
44223;DHT22;29895;48.804;9.386;2023-02-28T01:03:59;-1.40;99.90
44223;DHT22;29895;48.804;9.386;2023-02-28T01:06:25;-1.20;99.90
44223;DHT22;29895;48.804;9.386;2023-02-28T01:08:51;-1.30;99.90
44223;DHT22;29895;48.804;9.386;2023-02-28T01:11:17;-1.30;99.90
44223;DHT22;29895;48.804;9.386;2023-02-28T01:13:45;-1.30;99.90
44223;DHT22;29895;48.804;9.386;2023-02-28T01:16:11;-1.20;99.90
44223;DHT22;29895;48.804;9.386;2023-02-28T01:18:38;-1.10;99.90
44223;DHT22;29895;48.804;9.386;2023-02-28T01:21:08;-1.20;99.90
44223;DHT22;29895;48.804;9.386;2023-02-28T01:23:35;-1.20;99.90
44223;DHT22;29895;48.804;9.386;2023-02-28T01:26:18;-1.20;99.90
44223;DHT22;29895;48.804;9.386;2023-02-28T01:28:44;-1.10;99.90
44223;DHT22;29895;48.804;9.386;2023-02-28T01:31:10;-1.10;99.90
44223;DHT22;29895;48.804;9.386;2023-02-28T01:33:36;-1.10;99.90
44223;DHT22;29895;48.804;9.386;2023-02-28T01:36:04;-1.20;99.90
44223;DHT22;29895;48.804;9.386;2023-02-28T01:38:31;-1.20;99.90
44223;DHT22;29895;48.804;9.386;2023-02-28T01:40:56;-1.20;99.90
44223;DHT22;29895;48.804;9.386;2023-02-28T01:45:54;-1.10;99.90
44223;DHT22;29895;48.804;9.386;2023-02-28T01:48:24;-1.10;99.90
44223;DHT22;29895;48.804;9.386;2023-02-28T01:50:52;-1.10;99.90
44223;DHT22;29895;48.804;9.386;2023-02-28T01:53:23;-1.10;99.90
44223;DHT22;29895;48.804;9.386;2023-02-28T01:55:52;-1.10;99.90
44223;DHT22;29895;48.804;9.386;2023-02-28T01:58:19;-1.00;99.90
44223;DHT22;29895;48.804;9.386;2023-02-28T02:00:45;-1.00;99.90
44223;DHT22;29895;48.804;9.386;2023-02-28T02:03:14;-1.10;99.90
44223;DHT22;29895;48.804;9.386;2023-02-28T02:05:41;-1.10;99.90
44223;DHT22;29895;48.804;9.386;2023-02-28T02:08:10;-1.10;99.90
44223;DHT22;29895;48.804;9.386;2023-02-28T02:10:50;-1.10;99.90
44223;DHT22;29895;48.804;9.386;2023-02-28T02:18:29;-1.10;99.90
44223;DHT22;29895;48.804;9.386;2023-02-28T02:21:58;-1.10;99.90
44223;DHT22;29895;48.804;9.386;2023-02-28T02:27:27;-1.00;99.90
44223;DHT22;29895;48.804;9.386;2023-02-28T02:44:06;-1.00;99.90
44223;DHT22;29895;48.804;9.386;2023-02-28T02:46:39;-1.00;99.90
44223;DHT22;29895;48.804;9.386;2023-02-28T02:49:10;-1.00;99.90
44223;DHT22;29895;48.804;9.386;2023-02-28T02:51:38;-0.90;99.90
44223;DHT22;29895;48.804;9.386;2023-02-28T02:54:10;-1.00;99.90
44223;DHT22;29895;48.804;9.386;2023-02-28T02:56:38;-1.00;99.90
44223;DHT22;29895;48.804;9.386;2023-02-28T02:59:08;-1.00;99.90
44223;DHT22;29895;48.804;9.386;2023-02-28T03:01:37;-1.00;99.90
44223;DHT22;29895;48.804;9.386;2023-02-28T03:04:07;-1.00;99.90
44223;DHT22;29895;48.804;9.386;2023-02-28T03:06:33;-0.90;99.90
44223;DHT22;29895;48.804;9.386;2023-02-28T03:09:01;-0.90;99.90
44223;DHT22;29895;48.804;9.386;2023-02-28T03:11:27;-0.90;99.90
44223;DHT22;29895;48.804;9.386;2023-02-28T03:25:22;-1.00;99.90
44223;DHT22;29895;48.804;9.386;2023-02-28T03:28:21;-1.00;99.90
44223;DHT22;29895;48.804;9.386;2023-02-28T03:30:59;-0.90;99.90
44223;DHT22;29895;48.804;9.386;2023-02-28T03:33:30;-0.90;99.90
44223;DHT22;29895;48.804;9.386;2023-02-28T03:36:01;-0.90;99.90
44223;DHT22;29895;48.804;9.386;2023-02-28T03:39:02;-0.90;99.90
44223;DHT22;29895;48.804;9.386;2023-02-28T03:41:42;-0.90;99.90
44223;DHT22;29895;48.804;9.386;2023-02-28T03:44:17;-0.90;99.90
44223;DHT22;29895;48.804;9.386;2023-02-28T03:46:54;-0.90;99.90
44223;DHT22;29895;48.804;9.386;2023-02-28T03:49:26;-0.80;99.90
44223;DHT22;29895;48.804;9.386;2023-02-28T03:51:54;-0.90;99.90
44223;DHT22;29895;48.804;9.386;2023-02-28T03:54:33;-0.90;99.90
44223;DHT22;29895;48.804;9.386;2023-02-28T03:57:17;-0.90;99.90
44223;DHT22;29895;48.804;9.386;2023-02-28T03:59:47;-0.90;99.90
44223;DHT22;29895;48.804;9.386;2023-02-28T04:02:14;-0.80;99.90
44223;DHT22;29895;48.804;9.386;2023-02-28T04:04:39;-0.80;99.90
44223;DHT22;29895;48.804;9.386;2023-02-28T04:07:11;-0.80;99.90
44223;DHT22;29895;48.804;9.386;2023-02-28T04:09:37;-0.80;99.90
44223;DHT22;29895;48.804;9.386;2023-02-28T04:12:03;-0.80;99.90
44223;DHT22;29895;48.804;9.386;2023-02-28T04:14:28;-0.70;99.90
44223;DHT22;29895;48.804;9.386;2023-02-28T04:16:54;-0.70;99.90
44223;DHT22;29895;48.804;9.386;2023-02-28T04:19:20;-0.60;99.90
44223;DHT22;29895;48.804;9.386;2023-02-28T04:21:48;-0.60;99.90
44223;DHT22;29895;48.804;9.386;2023-02-28T04:24:16;-0.60;99.90
44223;DHT22;29895;48.804;9.386;2023-02-28T04:26:44;-0.60;99.90
44223;DHT22;29895;48.804;9.386;2023-02-28T04:29:12;-0.60;99.90
44223;DHT22;29895;48.804;9.386;2023-02-28T04:31:38;-0.50;99.90
44223;DHT22;29895;48.804;9.386;2023-02-28T04:34:05;-0.50;99.90
44223;DHT22;29895;48.804;9.386;2023-02-28T04:36:31;-0.50;99.90
44223;DHT22;29895;48.804;9.386;2023-02-28T04:38:57;-0.50;99.90
44223;DHT22;29895;48.804;9.386;2023-02-28T04:41:23;-0.50;99.90
44223;DHT22;29895;48.804;9.386;2023-02-28T04:43:50;-0.50;99.90
44223;DHT22;29895;48.804;9.386;2023-02-28T04:46:16;-0.60;99.90
44223;DHT22;29895;48.804;9.386;2023-02-28T04:48:43;-0.60;99.90
44223;DHT22;29895;48.804;9.386;2023-02-28T04:51:11;-0.70;99.90
44223;DHT22;29895;48.804;9.386;2023-02-28T04:53:38;-0.60;99.90
44223;DHT22;29895;48.804;9.386;2023-02-28T04:56:04;-0.50;99.90
44223;DHT22;29895;48.804;9.386;2023-02-28T04:58:32;-0.50;99.90
44223;DHT22;29895;48.804;9.386;2023-02-28T05:01:06;-0.50;99.90
44223;DHT22;29895;48.804;9.386;2023-02-28T05:03:39;-0.50;99.90
44223;DHT22;29895;48.804;9.386;2023-02-28T05:06:06;-0.40;99.90
44223;DHT22;29895;48.804;9.386;2023-02-28T05:08:33;-0.40;99.90
44223;DHT22;29895;48.804;9.386;2023-02-28T05:10:58;-0.40;99.90
44223;DHT22;29895;48.804;9.386;2023-02-28T05:13:26;-0.40;99.90
44223;DHT22;29895;48.804;9.386;2023-02-28T05:15:52;-0.40;99.90
44223;DHT22;29895;48.804;9.386;2023-02-28T05:18:18;-0.50;99.90
44223;DHT22;29895;48.804;9.386;2023-02-28T05:20:43;-0.50;99.90
44223;DHT22;29895;48.804;9.386;2023-02-28T05:23:13;-0.50;99.90
44223;DHT22;29895;48.804;9.386;2023-02-28T05:25:40;-0.50;99.90
44223;DHT22;29895;48.804;9.386;2023-02-28T05:28:06;-0.50;99.90
44223;DHT22;29895;48.804;9.386;2023-02-28T05:30:32;-0.40;99.90
44223;DHT22;29895;48.804;9.386;2023-02-28T05:32:58;-0.40;99.90
44223;DHT22;29895;48.804;9.386;2023-02-28T05:35:25;-0.60;99.90
44223;DHT22;29895;48.804;9.386;2023-02-28T05:37:51;-0.50;99.90
44223;DHT22;29895;48.804;9.386;2023-02-28T05:40:17;-0.50;99.90
44223;DHT22;29895;48.804;9.386;2023-02-28T05:42:44;-0.50;99.90
44223;DHT22;29895;48.804;9.386;2023-02-28T05:45:10;-0.50;99.90
44223;DHT22;29895;48.804;9.386;2023-02-28T05:47:36;-0.40;99.90
44223;DHT22;29895;48.804;9.386;2023-02-28T05:50:02;-0.40;99.90
44223;DHT22;29895;48.804;9.386;2023-02-28T05:52:28;-0.40;99.90
44223;DHT22;29895;48.804;9.386;2023-02-28T05:54:55;-0.30;99.90
44223;DHT22;29895;48.804;9.386;2023-02-28T05:57:21;-0.30;99.90
44223;DHT22;29895;48.804;9.386;2023-02-28T05:59:47;-0.40;99.90
44223;DHT22;29895;48.804;9.386;2023-02-28T06:02:15;-0.30;99.90
44223;DHT22;29895;48.804;9.386;2023-02-28T06:04:41;-0.20;99.90
44223;DHT22;29895;48.804;9.386;2023-02-28T06:07:07;-0.20;99.90
44223;DHT22;29895;48.804;9.386;2023-02-28T06:09:33;-0.10;99.90
44223;DHT22;29895;48.804;9.386;2023-02-28T06:12:00;-0.10;99.90
44223;DHT22;29895;48.804;9.386;2023-02-28T06:14:28;-0.10;99.90
44223;DHT22;29895;48.804;9.386;2023-02-28T06:16:54;0.00;99.90
44223;DHT22;29895;48.804;9.386;2023-02-28T06:19:19;-0.10;99.90
44223;DHT22;29895;48.804;9.386;2023-02-28T06:21:50;-0.10;99.90
44223;DHT22;29895;48.804;9.386;2023-02-28T06:24:18;-0.10;99.90
44223;DHT22;29895;48.804;9.386;2023-02-28T06:26:44;-0.20;99.90
44223;DHT22;29895;48.804;9.386;2023-02-28T06:29:10;-0.20;99.90
44223;DHT22;29895;48.804;9.386;2023-02-28T06:31:36;-0.30;99.90
44223;DHT22;29895;48.804;9.386;2023-02-28T06:34:01;-0.30;99.90
44223;DHT22;29895;48.804;9.386;2023-02-28T06:36:27;-0.20;99.90
44223;DHT22;29895;48.804;9.386;2023-02-28T06:38:53;-0.20;99.90
44223;DHT22;29895;48.804;9.386;2023-02-28T06:41:21;-0.10;99.90
44223;DHT22;29895;48.804;9.386;2023-02-28T06:43:47;-0.10;99.90
44223;DHT22;29895;48.804;9.386;2023-02-28T06:46:13;-0.10;99.90
44223;DHT22;29895;48.804;9.386;2023-02-28T06:48:40;-0.10;99.90
44223;DHT22;29895;48.804;9.386;2023-02-28T06:51:18;-0.20;99.90
44223;DHT22;29895;48.804;9.386;2023-02-28T06:53:45;-0.10;99.90
44223;DHT22;29895;48.804;9.386;2023-02-28T06:56:13;-0.10;99.90
44223;DHT22;29895;48.804;9.386;2023-02-28T06:58:39;-0.10;99.90
44223;DHT22;29895;48.804;9.386;2023-02-28T07:01:06;-0.10;99.90
44223;DHT22;29895;48.804;9.386;2023-02-28T07:03:32;-0.10;99.90
44223;DHT22;29895;48.804;9.386;2023-02-28T07:05:58;-0.10;99.90
44223;DHT22;29895;48.804;9.386;2023-02-28T07:08:25;-0.10;99.90
44223;DHT22;29895;48.804;9.386;2023-02-28T07:10:54;-0.10;99.90
44223;DHT22;29895;48.804;9.386;2023-02-28T07:13:21;0.00;99.90
44223;DHT22;29895;48.804;9.386;2023-02-28T07:16:09;0.10;99.90
44223;DHT22;29895;48.804;9.386;2023-02-28T07:18:35;0.10;99.90
44223;DHT22;29895;48.804;9.386;2023-02-28T07:21:06;0.00;99.90
44223;DHT22;29895;48.804;9.386;2023-02-28T07:23:32;0.10;99.90
44223;DHT22;29895;48.804;9.386;2023-02-28T07:25:58;0.10;99.90
44223;DHT22;29895;48.804;9.386;2023-02-28T07:31:06;0.10;99.90
44223;DHT22;29895;48.804;9.386;2023-02-28T07:33:35;0.10;99.90
44223;DHT22;29895;48.804;9.386;2023-02-28T07:36:06;0.10;99.90
44223;DHT22;29895;48.804;9.386;2023-02-28T07:38:36;0.20;99.90
44223;DHT22;29895;48.804;9.386;2023-02-28T07:41:04;0.10;99.90
44223;DHT22;29895;48.804;9.386;2023-02-28T07:43:31;0.20;99.90
44223;DHT22;29895;48.804;9.386;2023-02-28T07:46:02;0.10;99.90
44223;DHT22;29895;48.804;9.386;2023-02-28T07:48:28;0.10;99.90
44223;DHT22;29895;48.804;9.386;2023-02-28T07:50:55;0.10;99.90
44223;DHT22;29895;48.804;9.386;2023-02-28T07:53:21;0.10;99.90
44223;DHT22;29895;48.804;9.386;2023-02-28T07:55:47;0.10;99.90
44223;DHT22;29895;48.804;9.386;2023-02-28T07:58:13;0.10;99.90
44223;DHT22;29895;48.804;9.386;2023-02-28T08:00:39;0.00;99.90
44223;DHT22;29895;48.804;9.386;2023-02-28T08:03:04;0.10;99.90
44223;DHT22;29895;48.804;9.386;2023-02-28T08:05:30;0.10;99.90
44223;DHT22;29895;48.804;9.386;2023-02-28T08:07:56;0.20;99.90
44223;DHT22;29895;48.804;9.386;2023-02-28T08:10:22;0.20;99.90
44223;DHT22;29895;48.804;9.386;2023-02-28T08:12:49;0.20;99.90
44223;DHT22;29895;48.804;9.386;2023-02-28T08:15:18;0.30;99.90
44223;DHT22;29895;48.804;9.386;2023-02-28T08:17:43;0.40;99.90
44223;DHT22;29895;48.804;9.386;2023-02-28T08:20:09;0.50;99.90
44223;DHT22;29895;48.804;9.386;2023-02-28T08:22:35;0.70;99.90
44223;DHT22;29895;48.804;9.386;2023-02-28T08:25:01;0.60;99.90
44223;DHT22;29895;48.804;9.386;2023-02-28T08:27:27;0.50;99.90
44223;DHT22;29895;48.804;9.386;2023-02-28T08:29:52;0.40;99.90
44223;DHT22;29895;48.804;9.386;2023-02-28T08:32:18;0.60;99.90
44223;DHT22;29895;48.804;9.386;2023-02-28T08:34:44;0.50;99.90
44223;DHT22;29895;48.804;9.386;2023-02-28T08:37:10;0.40;99.90
44223;DHT22;29895;48.804;9.386;2023-02-28T08:39:36;0.40;99.90
44223;DHT22;29895;48.804;9.386;2023-02-28T08:47:43;0.30;99.90
44223;DHT22;29895;48.804;9.386;2023-02-28T08:50:09;0.40;99.90
44223;DHT22;29895;48.804;9.386;2023-02-28T08:52:35;0.60;99.90
44223;DHT22;29895;48.804;9.386;2023-02-28T08:55:01;0.70;99.90
44223;DHT22;29895;48.804;9.386;2023-02-28T08:57:27;0.70;99.90
44223;DHT22;29895;48.804;9.386;2023-02-28T08:59:53;0.80;99.90
44223;DHT22;29895;48.804;9.386;2023-02-28T09:04:54;0.90;99.90
44223;DHT22;29895;48.804;9.386;2023-02-28T09:07:20;0.90;99.90
44223;DHT22;29895;48.804;9.386;2023-02-28T09:09:46;0.80;99.90
44223;DHT22;29895;48.804;9.386;2023-02-28T09:12:24;0.90;99.90
44223;DHT22;29895;48.804;9.386;2023-02-28T09:14:51;0.90;99.90
44223;DHT22;29895;48.804;9.386;2023-02-28T09:17:16;0.80;99.90
44223;DHT22;29895;48.804;9.386;2023-02-28T09:19:42;1.10;99.90
44223;DHT22;29895;48.804;9.386;2023-02-28T09:22:09;1.30;99.90
44223;DHT22;29895;48.804;9.386;2023-02-28T09:24:36;1.20;99.90
44223;DHT22;29895;48.804;9.386;2023-02-28T09:27:02;1.20;99.90
44223;DHT22;29895;48.804;9.386;2023-02-28T09:29:28;1.20;99.90
44223;DHT22;29895;48.804;9.386;2023-02-28T09:31:54;1.30;99.90
44223;DHT22;29895;48.804;9.386;2023-02-28T09:34:21;1.30;99.90
44223;DHT22;29895;48.804;9.386;2023-02-28T09:36:47;1.30;99.90
44223;DHT22;29895;48.804;9.386;2023-02-28T09:39:13;1.40;99.90
44223;DHT22;29895;48.804;9.386;2023-02-28T09:41:46;1.30;99.90
44223;DHT22;29895;48.804;9.386;2023-02-28T09:44:42;1.40;99.90
44223;DHT22;29895;48.804;9.386;2023-02-28T09:47:36;1.60;99.90
44223;DHT22;29895;48.804;9.386;2023-02-28T09:52:53;1.40;99.90
44223;DHT22;29895;48.804;9.386;2023-02-28T09:55:32;1.40;99.90
44223;DHT22;29895;48.804;9.386;2023-02-28T09:58:00;1.50;99.90
44223;DHT22;29895;48.804;9.386;2023-02-28T10:00:33;1.80;99.90
44223;DHT22;29895;48.804;9.386;2023-02-28T10:03:30;1.90;99.90
44223;DHT22;29895;48.804;9.386;2023-02-28T10:06:13;1.80;99.90
44223;DHT22;29895;48.804;9.386;2023-02-28T10:08:50;1.70;99.90
44223;DHT22;29895;48.804;9.386;2023-02-28T10:11:19;1.90;99.90
44223;DHT22;29895;48.804;9.386;2023-02-28T10:14:03;2.20;99.90
44223;DHT22;29895;48.804;9.386;2023-02-28T10:16:47;2.50;99.90
44223;DHT22;29895;48.804;9.386;2023-02-28T10:19:25;2.60;99.90
44223;DHT22;29895;48.804;9.386;2023-02-28T10:22:10;2.30;99.90
44223;DHT22;29895;48.804;9.386;2023-02-28T10:24:54;2.20;99.90
44223;DHT22;29895;48.804;9.386;2023-02-28T10:27:31;2.50;99.90
44223;DHT22;29895;48.804;9.386;2023-02-28T10:29:59;2.70;99.90
44223;DHT22;29895;48.804;9.386;2023-02-28T10:32:28;2.50;99.90
44223;DHT22;29895;48.804;9.386;2023-02-28T10:37:32;2.70;99.90
44223;DHT22;29895;48.804;9.386;2023-02-28T10:40:07;2.80;99.90
44223;DHT22;29895;48.804;9.386;2023-02-28T10:43:03;3.00;99.90
44223;DHT22;29895;48.804;9.386;2023-02-28T10:45:31;3.30;99.90
44223;DHT22;29895;48.804;9.386;2023-02-28T10:50:37;3.20;99.90
44223;DHT22;29895;48.804;9.386;2023-02-28T10:55:36;2.90;99.90
44223;DHT22;29895;48.804;9.386;2023-02-28T10:58:02;2.80;99.90
44223;DHT22;29895;48.804;9.386;2023-02-28T11:00:34;2.90;99.90
44223;DHT22;29895;48.804;9.386;2023-02-28T11:03:00;3.00;99.90
44223;DHT22;29895;48.804;9.386;2023-02-28T11:07:56;2.80;99.90
44223;DHT22;29895;48.804;9.386;2023-02-28T11:10:25;2.80;99.90
44223;DHT22;29895;48.804;9.386;2023-02-28T11:12:55;2.70;99.90
44223;DHT22;29895;48.804;9.386;2023-02-28T11:15:27;2.60;99.90
44223;DHT22;29895;48.804;9.386;2023-02-28T11:20:25;2.40;99.90
44223;DHT22;29895;48.804;9.386;2023-02-28T11:22:51;2.40;99.90
44223;DHT22;29895;48.804;9.386;2023-02-28T11:25:32;2.60;99.90
44223;DHT22;29895;48.804;9.386;2023-02-28T11:28:00;2.60;99.90
44223;DHT22;29895;48.804;9.386;2023-02-28T11:30:34;2.60;99.90
44223;DHT22;29895;48.804;9.386;2023-02-28T11:33:00;2.70;99.90
44223;DHT22;29895;48.804;9.386;2023-02-28T11:35:28;2.70;99.90
44223;DHT22;29895;48.804;9.386;2023-02-28T11:37:55;2.70;99.90
44223;DHT22;29895;48.804;9.386;2023-02-28T11:40:36;2.60;99.90
44223;DHT22;29895;48.804;9.386;2023-02-28T11:48:22;2.90;99.90
44223;DHT22;29895;48.804;9.386;2023-02-28T11:51:05;3.00;99.90
44223;DHT22;29895;48.804;9.386;2023-02-28T11:56:37;3.40;99.90
44223;DHT22;29895;48.804;9.386;2023-02-28T12:02:28;3.60;99.90
44223;DHT22;29895;48.804;9.386;2023-02-28T12:11:11;3.70;99.90
44223;DHT22;29895;48.804;9.386;2023-02-28T12:13:55;3.80;99.90
44223;DHT22;29895;48.804;9.386;2023-02-28T12:16:45;3.90;99.90
44223;DHT22;29895;48.804;9.386;2023-02-28T12:27:23;4.20;99.90
44223;DHT22;29895;48.804;9.386;2023-02-28T12:32:37;4.00;99.90
44223;DHT22;29895;48.804;9.386;2023-02-28T12:35:14;4.10;99.90
44223;DHT22;29895;48.804;9.386;2023-02-28T12:37:53;4.20;99.90
44223;DHT22;29895;48.804;9.386;2023-02-28T12:40:23;4.20;99.90
44223;DHT22;29895;48.804;9.386;2023-02-28T12:43:03;4.30;99.90
44223;DHT22;29895;48.804;9.386;2023-02-28T12:45:54;4.30;99.90
44223;DHT22;29895;48.804;9.386;2023-02-28T12:48:29;4.50;99.90
44223;DHT22;29895;48.804;9.386;2023-02-28T12:50:57;4.90;99.80
44223;DHT22;29895;48.804;9.386;2023-02-28T12:59:27;5.10;99.50
44223;DHT22;29895;48.804;9.386;2023-02-28T13:10:02;4.80;99.50
44223;DHT22;29895;48.804;9.386;2023-02-28T13:12:29;4.80;99.30
44223;DHT22;29895;48.804;9.386;2023-02-28T13:15:24;4.90;99.40
44223;DHT22;29895;48.804;9.386;2023-02-28T13:17:52;5.00;99.30
44223;DHT22;29895;48.804;9.386;2023-02-28T13:20:21;5.10;98.80
44223;DHT22;29895;48.804;9.386;2023-02-28T13:22:51;5.10;99.00
44223;DHT22;29895;48.804;9.386;2023-02-28T13:28:02;5.20;98.60
44223;DHT22;29895;48.804;9.386;2023-02-28T13:39:00;5.10;98.80
44223;DHT22;29895;48.804;9.386;2023-02-28T13:47:15;5.00;98.40
44223;DHT22;29895;48.804;9.386;2023-02-28T13:49:29;5.10;98.70
44223;DHT22;29895;48.804;9.386;2023-02-28T14:05:32;5.20;98.50
44223;DHT22;29895;48.804;9.386;2023-02-28T14:08:10;5.20;98.30
44223;DHT22;29895;48.804;9.386;2023-02-28T14:10:45;5.30;98.40
44223;DHT22;29895;48.804;9.386;2023-02-28T14:16:01;5.70;98.20
44223;DHT22;29895;48.804;9.386;2023-02-28T14:18:35;5.60;97.50
44223;DHT22;29895;48.804;9.386;2023-02-28T14:21:14;5.30;97.90
44223;DHT22;29895;48.804;9.386;2023-02-28T14:32:51;5.60;98.50
44223;DHT22;29895;48.804;9.386;2023-02-28T14:37:51;5.40;97.70
44223;DHT22;29895;48.804;9.386;2023-02-28T14:42:59;5.50;98.10
44223;DHT22;29895;48.804;9.386;2023-02-28T14:45:29;5.60;97.70
44223;DHT22;29895;48.804;9.386;2023-02-28T14:47:56;5.60;97.90
44223;DHT22;29895;48.804;9.386;2023-02-28T14:50:34;5.70;98.20
44223;DHT22;29895;48.804;9.386;2023-02-28T14:53:01;5.80;98.30
44223;DHT22;29895;48.804;9.386;2023-02-28T14:55:33;5.80;97.90
44223;DHT22;29895;48.804;9.386;2023-02-28T14:58:00;5.60;97.50
44223;DHT22;29895;48.804;9.386;2023-02-28T15:00:29;5.50;97.60
44223;DHT22;29895;48.804;9.386;2023-02-28T15:02:56;5.40;97.90
44223;DHT22;29895;48.804;9.386;2023-02-28T15:05:30;5.40;98.00
44223;DHT22;29895;48.804;9.386;2023-02-28T15:08:15;5.40;98.00
44223;DHT22;29895;48.804;9.386;2023-02-28T15:11:07;5.40;98.10
44223;DHT22;29895;48.804;9.386;2023-02-28T15:13:44;5.40;97.80
44223;DHT22;29895;48.804;9.386;2023-02-28T15:16:39;5.40;98.10
44223;DHT22;29895;48.804;9.386;2023-02-28T15:21:48;5.20;98.40
44223;DHT22;29895;48.804;9.386;2023-02-28T15:24:22;5.20;98.40
44223;DHT22;29895;48.804;9.386;2023-02-28T15:27:13;5.20;98.80
44223;DHT22;29895;48.804;9.386;2023-02-28T15:30:04;5.20;98.90
44223;DHT22;29895;48.804;9.386;2023-02-28T15:32:33;5.20;98.80
44223;DHT22;29895;48.804;9.386;2023-02-28T15:35:34;5.20;98.80
44223;DHT22;29895;48.804;9.386;2023-02-28T15:38:17;5.20;98.80
44223;DHT22;29895;48.804;9.386;2023-02-28T15:40:45;5.10;98.80
44223;DHT22;29895;48.804;9.386;2023-02-28T15:45:51;5.00;99.20
44223;DHT22;29895;48.804;9.386;2023-02-28T15:50:52;5.00;99.20
44223;DHT22;29895;48.804;9.386;2023-02-28T15:56:04;5.00;99.30
44223;DHT22;29895;48.804;9.386;2023-02-28T15:58:30;4.90;99.20
44223;DHT22;29895;48.804;9.386;2023-02-28T16:01:04;4.80;99.30
44223;DHT22;29895;48.804;9.386;2023-02-28T16:04:06;4.90;99.30
44223;DHT22;29895;48.804;9.386;2023-02-28T16:06:43;4.80;99.50
44223;DHT22;29895;48.804;9.386;2023-02-28T16:09:15;4.80;99.50
44223;DHT22;29895;48.804;9.386;2023-02-28T16:11:49;4.80;99.60
44223;DHT22;29895;48.804;9.386;2023-02-28T16:14:21;4.80;99.40
44223;DHT22;29895;48.804;9.386;2023-02-28T16:16:54;4.80;99.40
44223;DHT22;29895;48.804;9.386;2023-02-28T16:19:23;4.70;99.50
44223;DHT22;29895;48.804;9.386;2023-02-28T16:21:49;4.60;99.80
44223;DHT22;29895;48.804;9.386;2023-02-28T16:24:15;4.60;99.70
44223;DHT22;29895;48.804;9.386;2023-02-28T16:26:42;4.60;99.80
44223;DHT22;29895;48.804;9.386;2023-02-28T16:29:15;4.60;99.90
44223;DHT22;29895;48.804;9.386;2023-02-28T16:31:42;4.60;99.90
44223;DHT22;29895;48.804;9.386;2023-02-28T16:34:08;4.50;99.90
44223;DHT22;29895;48.804;9.386;2023-02-28T16:36:34;4.50;99.90
44223;DHT22;29895;48.804;9.386;2023-02-28T16:38:59;4.50;99.90
44223;DHT22;29895;48.804;9.386;2023-02-28T16:41:27;4.50;99.90
44223;DHT22;29895;48.804;9.386;2023-02-28T16:43:55;4.40;99.90
44223;DHT22;29895;48.804;9.386;2023-02-28T16:46:33;4.40;99.90
44223;DHT22;29895;48.804;9.386;2023-02-28T16:48:59;4.30;99.90
44223;DHT22;29895;48.804;9.386;2023-02-28T16:51:25;4.30;99.90
44223;DHT22;29895;48.804;9.386;2023-02-28T16:53:51;4.20;99.90
44223;DHT22;29895;48.804;9.386;2023-02-28T16:56:24;4.20;99.90
44223;DHT22;29895;48.804;9.386;2023-02-28T16:58:51;4.20;99.90
44223;DHT22;29895;48.804;9.386;2023-02-28T17:01:18;4.10;99.90
44223;DHT22;29895;48.804;9.386;2023-02-28T17:03:48;4.00;99.90
44223;DHT22;29895;48.804;9.386;2023-02-28T17:06:25;4.00;99.90
44223;DHT22;29895;48.804;9.386;2023-02-28T17:08:53;4.00;99.90
44223;DHT22;29895;48.804;9.386;2023-02-28T17:11:19;4.00;99.90
44223;DHT22;29895;48.804;9.386;2023-02-28T17:13:46;3.90;99.90
44223;DHT22;29895;48.804;9.386;2023-02-28T17:16:33;3.90;99.90
44223;DHT22;29895;48.804;9.386;2023-02-28T17:19:05;3.70;99.90
44223;DHT22;29895;48.804;9.386;2023-02-28T17:21:32;3.80;99.90
44223;DHT22;29895;48.804;9.386;2023-02-28T17:23:59;3.60;99.90
44223;DHT22;29895;48.804;9.386;2023-02-28T17:26:25;3.50;99.90
44223;DHT22;29895;48.804;9.386;2023-02-28T17:28:52;3.50;99.90
44223;DHT22;29895;48.804;9.386;2023-02-28T17:31:22;3.50;99.90
44223;DHT22;29895;48.804;9.386;2023-02-28T17:33:48;3.40;99.90
44223;DHT22;29895;48.804;9.386;2023-02-28T17:36:22;3.40;99.90
44223;DHT22;29895;48.804;9.386;2023-02-28T17:38:48;3.40;99.90
44223;DHT22;29895;48.804;9.386;2023-02-28T17:41:14;3.30;99.90
44223;DHT22;29895;48.804;9.386;2023-02-28T17:43:40;3.20;99.90
44223;DHT22;29895;48.804;9.386;2023-02-28T17:46:16;3.10;99.90
44223;DHT22;29895;48.804;9.386;2023-02-28T17:48:43;3.20;99.90
44223;DHT22;29895;48.804;9.386;2023-02-28T17:51:12;3.10;99.90
44223;DHT22;29895;48.804;9.386;2023-02-28T17:53:38;3.10;99.90
44223;DHT22;29895;48.804;9.386;2023-02-28T17:56:04;3.00;99.90
44223;DHT22;29895;48.804;9.386;2023-02-28T17:58:30;3.00;99.90
44223;DHT22;29895;48.804;9.386;2023-02-28T18:00:59;3.00;99.90
44223;DHT22;29895;48.804;9.386;2023-02-28T18:03:24;2.90;99.90
44223;DHT22;29895;48.804;9.386;2023-02-28T18:05:51;2.80;99.90
44223;DHT22;29895;48.804;9.386;2023-02-28T18:08:16;2.70;99.90
44223;DHT22;29895;48.804;9.386;2023-02-28T18:10:42;2.60;99.90
44223;DHT22;29895;48.804;9.386;2023-02-28T18:13:08;2.50;99.90
44223;DHT22;29895;48.804;9.386;2023-02-28T18:15:36;2.40;99.90
44223;DHT22;29895;48.804;9.386;2023-02-28T18:18:02;2.20;99.90
44223;DHT22;29895;48.804;9.386;2023-02-28T18:20:27;2.10;99.90
44223;DHT22;29895;48.804;9.386;2023-02-28T18:22:53;1.90;99.90
44223;DHT22;29895;48.804;9.386;2023-02-28T18:25:19;1.80;99.90
44223;DHT22;29895;48.804;9.386;2023-02-28T18:27:45;1.60;99.90
44223;DHT22;29895;48.804;9.386;2023-02-28T18:30:25;1.50;99.90
44223;DHT22;29895;48.804;9.386;2023-02-28T18:32:51;1.40;99.90
44223;DHT22;29895;48.804;9.386;2023-02-28T18:35:17;1.30;99.90
44223;DHT22;29895;48.804;9.386;2023-02-28T18:38:00;1.20;99.90
44223;DHT22;29895;48.804;9.386;2023-02-28T18:40:25;1.10;99.90